createdAt,value
2019-05-03T00:00:11.785Z,23.50
2019-05-03T00:02:52.269Z,23.50
2019-05-03T00:05:44.104Z,23.60
2019-05-03T00:08:13.946Z,23.50
2019-05-03T00:10:43.797Z,23.50
2019-05-03T00:13:14.362Z,23.50
2019-05-03T00:16:02.961Z,23.50
2019-05-03T00:18:33.007Z,23.50
2019-05-03T00:21:02.866Z,23.50
2019-05-03T00:23:32.637Z,23.50
2019-05-03T00:26:02.833Z,23.50
2019-05-03T00:28:32.792Z,23.50
2019-05-03T00:31:04.402Z,23.50
2019-05-03T00:33:35.931Z,23.50
2019-05-03T00:36:28.139Z,23.50
2019-05-03T00:39:03.334Z,23.50
2019-05-03T00:41:33.130Z,23.50
2019-05-03T00:44:02.939Z,23.50
2019-05-03T00:46:32.823Z,23.50
2019-05-03T00:49:03.772Z,23.50
2019-05-03T00:51:34.659Z,23.50
2019-05-03T00:54:04.456Z,23.50
2019-05-03T00:56:34.242Z,23.50
2019-05-03T00:59:04.407Z,23.40
2019-05-03T01:01:34.757Z,23.50
2019-05-03T01:04:05.933Z,23.40
2019-05-03T01:06:35.799Z,23.40
2019-05-03T01:09:11.830Z,23.40
2019-05-03T01:11:41.898Z,23.40
2019-05-03T01:14:12.229Z,23.40
2019-05-03T01:16:42.705Z,23.40
2019-05-03T01:19:12.922Z,23.40
2019-05-03T01:21:42.717Z,23.40
2019-05-03T01:24:12.494Z,23.40
2019-05-03T01:26:42.333Z,23.40
2019-05-03T01:29:13.654Z,23.40
2019-05-03T01:31:43.406Z,23.40
2019-05-03T01:34:13.154Z,23.40
2019-05-03T01:36:42.922Z,23.40
2019-05-03T01:39:12.847Z,23.40
2019-05-03T01:41:42.666Z,23.40
2019-05-03T01:44:12.527Z,23.40
2019-05-03T01:46:42.503Z,23.40
2019-05-03T01:49:32.016Z,23.40
2019-05-03T01:52:21.799Z,23.40
2019-05-03T01:54:52.171Z,23.30
2019-05-03T01:57:22.186Z,23.30
2019-05-03T01:59:52.203Z,23.30
2019-05-03T02:02:48.271Z,23.30
2019-05-03T02:05:36.018Z,23.30
2019-05-03T02:08:05.924Z,23.30
2019-05-03T02:10:35.756Z,23.30
2019-05-03T02:13:05.665Z,23.30
2019-05-03T02:15:35.418Z,23.30
2019-05-03T02:18:05.248Z,23.30
2019-05-03T02:20:35.199Z,23.30
2019-05-03T02:23:05.231Z,23.30
2019-05-03T02:25:35.130Z,23.30
2019-05-03T02:28:05.503Z,23.30
2019-05-03T02:30:36.599Z,23.30
2019-05-03T02:33:07.419Z,23.30
2019-05-03T02:35:37.260Z,23.30
2019-05-03T02:38:07.555Z,23.20
2019-05-03T02:40:37.415Z,23.30
2019-05-03T02:43:19.096Z,23.20
2019-05-03T02:46:25.336Z,23.20
2019-05-03T02:49:02.546Z,23.20
2019-05-03T02:51:35.841Z,23.20
2019-05-03T02:54:05.558Z,23.20
2019-05-03T02:56:36.055Z,23.20
2019-05-03T02:59:06.455Z,23.20
2019-05-03T03:01:36.675Z,23.20
2019-05-03T03:04:06.585Z,23.20
2019-05-03T03:06:37.863Z,23.20
2019-05-03T03:09:08.378Z,23.20
2019-05-03T03:11:39.867Z,23.20
2019-05-03T03:14:13.146Z,23.20
2019-05-03T03:16:45.868Z,23.20
2019-05-03T03:19:17.567Z,23.20
2019-05-03T03:21:50.437Z,23.20
2019-05-03T03:24:25.639Z,23.20
2019-05-03T03:26:56.707Z,23.20
2019-05-03T03:29:28.793Z,23.10
2019-05-03T03:32:28.398Z,23.10
2019-05-03T03:35:21.462Z,23.10
2019-05-03T03:37:46.770Z,23.10
2019-05-03T03:40:17.811Z,23.10
2019-05-03T03:42:50.221Z,23.10
2019-05-03T03:45:20.159Z,23.10
2019-05-03T03:47:55.818Z,23.10
2019-05-03T03:50:26.194Z,23.10
2019-05-03T03:52:59.538Z,23.10
2019-05-03T03:55:32.480Z,23.10
2019-05-03T03:58:02.903Z,23.10
2019-05-03T04:00:32.720Z,23.10
2019-05-03T04:03:05.762Z,23.10
2019-05-03T04:05:35.842Z,23.10
2019-05-03T04:08:06.274Z,23.00
2019-05-03T04:10:37.368Z,23.00
2019-05-03T04:13:09.625Z,23.00
2019-05-03T04:16:02.104Z,23.00
2019-05-03T04:18:37.120Z,23.00
2019-05-03T04:21:07.337Z,23.00
2019-05-03T04:23:38.184Z,23.00
2019-05-03T04:26:09.440Z,23.00
2019-05-03T04:28:39.652Z,23.00
2019-05-03T04:31:11.096Z,23.00
2019-05-03T04:33:41.125Z,23.00
2019-05-03T04:36:11.205Z,23.00
2019-05-03T04:38:40.968Z,23.00
2019-05-03T04:41:10.821Z,23.00
2019-05-03T04:43:40.602Z,23.00
2019-05-03T04:46:20.910Z,23.00
2019-05-03T04:48:51.565Z,22.90
2019-05-03T04:51:21.355Z,22.90
2019-05-03T04:53:57.716Z,22.90
2019-05-03T04:56:27.763Z,22.90
2019-05-03T04:58:57.519Z,22.90
2019-05-03T05:01:27.302Z,22.90
2019-05-03T05:03:57.070Z,22.90
2019-05-03T05:06:26.838Z,22.90
2019-05-03T05:08:56.635Z,22.90
2019-05-03T05:11:26.533Z,22.90
2019-05-03T05:13:56.480Z,22.90
2019-05-03T05:16:26.279Z,22.90
2019-05-03T05:19:00.099Z,22.90
2019-05-03T05:21:35.571Z,22.90
2019-05-03T05:24:06.348Z,22.90
2019-05-03T05:26:58.454Z,22.90
2019-05-03T05:29:30.444Z,22.80
2019-05-03T05:32:02.073Z,22.80
2019-05-03T05:34:32.125Z,22.80
2019-05-03T05:37:02.794Z,22.80
2019-05-03T05:39:32.550Z,22.80
2019-05-03T05:42:04.434Z,22.80
2019-05-03T05:44:35.200Z,22.80
2019-05-03T05:47:15.080Z,22.80
2019-05-03T05:50:04.997Z,22.80
2019-05-03T05:52:35.074Z,22.80
2019-05-03T05:55:30.710Z,22.80
2019-05-03T05:58:19.619Z,22.80
2019-05-03T06:01:14.750Z,22.80
2019-05-03T06:03:44.926Z,22.80
2019-05-03T06:06:20.972Z,22.90
2019-05-03T06:09:00.574Z,22.80
2019-05-03T06:11:40.114Z,22.80
2019-05-03T06:14:15.283Z,22.80
2019-05-03T06:17:03.203Z,22.80
2019-05-03T06:19:37.534Z,22.80
2019-05-03T06:22:26.499Z,22.70
2019-05-03T06:25:01.522Z,22.40
2019-05-03T06:27:35.434Z,21.80
2019-05-03T06:30:15.046Z,21.10
2019-05-03T06:32:46.625Z,21.90
2019-05-03T06:35:17.134Z,21.80
2019-05-03T06:37:49.304Z,21.50
2019-05-03T06:40:19.316Z,21.30
2019-05-03T06:42:54.569Z,21.30
2019-05-03T06:45:20.990Z,21.50
2019-05-03T06:47:51.867Z,21.70
2019-05-03T06:50:25.212Z,21.90
2019-05-03T06:52:54.817Z,22.00
2019-05-03T06:55:24.990Z,22.10
2019-05-03T06:57:57.166Z,22.20
2019-05-03T07:01:01.499Z,22.20
2019-05-03T07:03:37.424Z,22.30
2019-05-03T07:06:34.507Z,22.40
2019-05-03T07:09:05.364Z,22.50
2019-05-03T07:11:35.962Z,22.60
2019-05-03T07:14:05.845Z,22.60
2019-05-03T07:16:35.830Z,22.70
2019-05-03T07:19:06.318Z,22.80
2019-05-03T07:21:36.253Z,22.90
2019-05-03T07:24:06.073Z,22.90
2019-05-03T07:26:36.589Z,22.90
2019-05-03T07:29:06.352Z,22.90
2019-05-03T07:31:38.674Z,23.00
2019-05-03T07:34:08.498Z,23.00
2019-05-03T07:36:41.141Z,23.00
2019-05-03T07:39:10.976Z,23.10
2019-05-03T07:41:40.782Z,23.10
2019-05-03T07:44:10.606Z,23.10
2019-05-03T07:46:40.361Z,23.20
2019-05-03T07:49:10.124Z,23.20
2019-05-03T07:51:41.910Z,23.20
2019-05-03T07:54:11.925Z,23.20
2019-05-03T07:56:50.254Z,23.20
2019-05-03T07:59:20.019Z,23.30
2019-05-03T08:01:52.074Z,23.40
2019-05-03T08:04:21.930Z,23.40
2019-05-03T08:06:51.706Z,23.40
2019-05-03T08:09:21.934Z,23.50
2019-05-03T08:11:51.704Z,23.50
2019-05-03T08:14:21.465Z,23.50
2019-05-03T08:16:51.506Z,23.60
2019-05-03T08:19:24.496Z,23.60
2019-05-03T08:21:56.444Z,23.70
2019-05-03T08:24:25.434Z,23.80
2019-05-03T08:26:55.844Z,23.80
2019-05-03T08:29:27.123Z,23.80
2019-05-03T08:32:09.643Z,23.90
2019-05-03T08:34:50.594Z,23.90
2019-05-03T08:37:35.463Z,23.90
2019-05-03T08:40:06.339Z,23.90
2019-05-03T08:42:36.230Z,23.90
2019-05-03T08:45:08.090Z,23.90
2019-05-03T08:47:38.045Z,24.00
2019-05-03T08:50:07.972Z,24.00
2019-05-03T08:52:37.743Z,24.00
2019-05-03T08:55:08.264Z,24.00
2019-05-03T08:57:38.107Z,24.00
2019-05-03T09:00:14.372Z,24.00
2019-05-03T09:02:44.710Z,24.00
2019-05-03T09:05:15.706Z,24.00
2019-05-03T09:07:46.627Z,24.00
2019-05-03T09:10:24.931Z,24.00
2019-05-03T09:13:15.072Z,24.10
2019-05-03T09:15:45.186Z,24.10
2019-05-03T09:18:17.448Z,24.00
2019-05-03T09:20:47.131Z,24.00
2019-05-03T09:23:17.099Z,24.00
2019-05-03T09:25:47.133Z,24.00
2019-05-03T09:28:16.901Z,24.10
2019-05-03T09:30:48.810Z,24.10
2019-05-03T09:33:18.641Z,24.10
2019-05-03T09:35:48.418Z,24.10
2019-05-03T09:38:19.507Z,24.10
2019-05-03T09:40:51.945Z,24.10
2019-05-03T09:43:21.230Z,24.10
2019-05-03T09:45:51.006Z,24.00
2019-05-03T09:48:20.837Z,24.00
2019-05-03T09:50:50.638Z,24.00
2019-05-03T09:53:22.310Z,24.10
2019-05-03T09:55:52.819Z,24.00
2019-05-03T09:58:22.719Z,24.10
2019-05-03T10:00:52.932Z,24.10
2019-05-03T10:03:22.826Z,24.10
2019-05-03T10:05:52.617Z,24.00
2019-05-03T10:08:22.522Z,24.10
2019-05-03T10:11:11.122Z,24.10
2019-05-03T10:13:42.038Z,24.10
2019-05-03T10:16:12.500Z,24.10
2019-05-03T10:18:42.279Z,24.10
2019-05-03T10:21:12.090Z,24.10
2019-05-03T10:23:42.101Z,24.10
2019-05-03T10:26:14.985Z,24.10
2019-05-03T10:28:44.511Z,24.10
2019-05-03T10:31:15.235Z,24.00
2019-05-03T10:33:50.598Z,24.00
2019-05-03T10:36:20.390Z,24.10
2019-05-03T10:38:50.983Z,24.10
2019-05-03T10:41:21.588Z,24.10
2019-05-03T10:43:51.702Z,24.10
2019-05-03T10:46:21.511Z,24.10
2019-05-03T10:48:51.290Z,24.00
2019-05-03T10:51:22.163Z,24.10
2019-05-03T10:53:57.153Z,24.10
2019-05-03T10:56:41.742Z,24.00
2019-05-03T10:59:11.565Z,24.10
2019-05-03T11:02:00.530Z,24.10
2019-05-03T11:04:31.444Z,24.10
2019-05-03T11:07:01.379Z,24.00
2019-05-03T11:09:31.143Z,24.00
2019-05-03T11:12:02.819Z,24.00
2019-05-03T11:14:34.854Z,24.00
2019-05-03T11:17:05.709Z,24.10
2019-05-03T11:19:35.895Z,24.10
2019-05-03T11:22:06.286Z,24.10
2019-05-03T11:24:36.928Z,24.10
2019-05-03T11:27:12.666Z,24.10
2019-05-03T11:29:44.870Z,24.10
2019-05-03T11:32:27.332Z,24.10
2019-05-03T11:35:11.672Z,24.10
2019-05-03T11:37:58.215Z,24.20
2019-05-03T11:40:28.739Z,24.10
2019-05-03T11:43:00.995Z,24.10
2019-05-03T11:45:30.948Z,24.20
2019-05-03T11:48:09.355Z,24.20
2019-05-03T11:50:39.279Z,24.20
2019-05-03T11:53:09.174Z,24.30
2019-05-03T11:55:39.158Z,24.30
2019-05-03T11:58:20.253Z,24.30
2019-05-03T12:01:13.106Z,24.30
2019-05-03T12:03:55.545Z,24.30
2019-05-03T12:06:25.566Z,24.30
2019-05-03T12:08:55.577Z,24.30
2019-05-03T12:11:26.735Z,24.30
2019-05-03T12:14:15.229Z,24.40
2019-05-03T12:17:14.318Z,24.40
2019-05-03T12:19:30.604Z,24.40
2019-05-03T12:21:58.700Z,24.50
2019-05-03T12:24:29.657Z,24.40
2019-05-03T12:27:00.408Z,24.40
2019-05-03T12:29:32.082Z,24.40
2019-05-03T12:32:02.390Z,24.50
2019-05-03T12:34:35.153Z,24.50
2019-05-03T12:37:05.302Z,24.50
2019-05-03T12:39:36.550Z,24.40
2019-05-03T12:42:06.456Z,24.40
2019-05-03T12:44:36.219Z,24.40
2019-05-03T12:47:06.241Z,24.40
2019-05-03T12:49:36.224Z,24.40
2019-05-03T12:52:06.068Z,24.40
2019-05-03T12:54:36.006Z,24.40
2019-05-03T12:57:05.995Z,24.40
2019-05-03T12:59:47.872Z,24.30
2019-05-03T13:02:24.890Z,24.30
2019-05-03T13:04:56.986Z,24.30
2019-05-03T13:07:35.718Z,24.30
2019-05-03T13:10:06.375Z,24.30
2019-05-03T13:12:49.678Z,24.20
2019-05-03T13:15:08.481Z,24.30
2019-05-03T13:17:39.671Z,24.20
2019-05-03T13:20:11.962Z,24.30
2019-05-03T13:22:41.915Z,24.30
2019-05-03T13:25:15.489Z,24.30
2019-05-03T13:27:46.307Z,24.30
2019-05-03T13:30:17.632Z,24.20
2019-05-03T13:32:47.639Z,24.20
2019-05-03T13:35:17.461Z,24.20
2019-05-03T13:37:47.578Z,24.20
2019-05-03T13:40:18.407Z,24.20
2019-05-03T13:42:57.131Z,24.30
2019-05-03T13:45:19.750Z,24.20
2019-05-03T13:47:49.555Z,24.30
2019-05-03T13:50:19.498Z,24.30
2019-05-03T13:52:51.567Z,24.30
2019-05-03T13:55:21.962Z,24.30
2019-05-03T13:57:54.693Z,23.50
2019-05-03T14:00:24.678Z,22.60
2019-05-03T14:02:56.363Z,21.70
2019-05-03T14:05:26.310Z,20.90
2019-05-03T14:07:56.523Z,20.40
2019-05-03T14:10:26.596Z,19.70
2019-05-03T14:12:56.809Z,18.50
2019-05-03T14:15:27.010Z,18.00
2019-05-03T14:17:56.992Z,18.30
2019-05-03T14:20:36.550Z,18.20
2019-05-03T14:23:06.411Z,18.40
2019-05-03T14:25:36.234Z,18.80
2019-05-03T14:28:06.947Z,19.20
2019-05-03T14:30:37.479Z,19.60
2019-05-03T14:33:07.306Z,19.80
2019-05-03T14:35:37.081Z,20.00
2019-05-03T14:38:06.840Z,20.20
2019-05-03T14:40:37.134Z,20.40
2019-05-03T14:43:07.008Z,20.50
2019-05-03T14:45:37.986Z,20.60
2019-05-03T14:48:08.006Z,20.60
2019-05-03T14:50:38.843Z,20.70
2019-05-03T14:53:08.826Z,20.80
2019-05-03T14:55:47.030Z,20.90
2019-05-03T14:58:35.276Z,20.90
2019-05-03T15:01:11.854Z,20.90
2019-05-03T15:03:41.657Z,20.90
2019-05-03T15:06:11.428Z,21.00
2019-05-03T15:08:41.227Z,21.00
2019-05-03T15:11:11.065Z,21.10
2019-05-03T15:13:40.906Z,21.10
2019-05-03T15:16:10.707Z,21.10
2019-05-03T15:18:40.527Z,21.10
2019-05-03T15:21:10.278Z,21.20
2019-05-03T15:23:40.046Z,21.20
2019-05-03T15:26:09.924Z,21.20
2019-05-03T15:28:40.542Z,21.20
2019-05-03T15:31:10.430Z,21.30
2019-05-03T15:33:41.301Z,21.30
2019-05-03T15:36:11.137Z,21.30
2019-05-03T15:38:40.910Z,21.30
2019-05-03T15:41:10.672Z,21.30
2019-05-03T15:43:59.930Z,21.40
2019-05-03T15:46:48.779Z,21.30
2019-05-03T15:49:19.587Z,21.40
2019-05-03T15:51:49.607Z,21.40
2019-05-03T15:54:19.444Z,21.40
2019-05-03T15:56:49.214Z,21.50
2019-05-03T15:59:18.979Z,21.40
2019-05-03T16:01:48.739Z,21.40
2019-05-03T16:04:18.510Z,21.40
2019-05-03T16:06:48.703Z,21.40
2019-05-03T16:09:19.515Z,21.40
2019-05-03T16:11:49.272Z,21.40
2019-05-03T16:14:19.030Z,21.30
2019-05-03T16:16:48.811Z,21.40
2019-05-03T16:19:18.606Z,21.40
2019-05-03T16:21:48.352Z,21.40
2019-05-03T16:24:19.009Z,21.40
2019-05-03T16:27:07.255Z,21.40
2019-05-03T16:29:37.029Z,21.30
2019-05-03T16:32:07.286Z,21.30
2019-05-03T16:34:37.818Z,21.30
2019-05-03T16:37:07.574Z,21.30
2019-05-03T16:39:37.342Z,21.30
2019-05-03T16:42:08.276Z,21.20
2019-05-03T16:44:38.842Z,21.30
2019-05-03T16:47:08.607Z,21.20
2019-05-03T16:49:38.374Z,21.20
2019-05-03T16:52:08.219Z,21.20
2019-05-03T16:54:37.959Z,21.20
2019-05-03T16:57:07.744Z,21.20
2019-05-03T16:59:37.557Z,21.20
2019-05-03T17:02:07.422Z,21.20
2019-05-03T17:04:45.711Z,21.20
2019-05-03T17:07:30.267Z,21.20
2019-05-03T17:10:07.989Z,21.20
2019-05-03T17:12:38.107Z,21.20
2019-05-03T17:15:08.559Z,21.20
2019-05-03T17:17:38.387Z,21.10
2019-05-03T17:20:08.645Z,21.20
2019-05-03T17:22:39.682Z,21.20
2019-05-03T17:25:09.450Z,21.20
2019-05-03T17:27:41.259Z,21.20
2019-05-03T17:30:11.371Z,21.20
2019-05-03T17:32:44.608Z,21.10
2019-05-03T17:35:14.580Z,21.20
2019-05-03T17:37:45.157Z,21.10
2019-05-03T17:40:35.211Z,21.10
2019-05-03T17:43:15.246Z,21.10
2019-05-03T17:45:48.949Z,21.10
2019-05-03T17:48:20.211Z,21.10
2019-05-03T17:50:50.233Z,21.10
2019-05-03T17:53:30.633Z,21.00
2019-05-03T17:56:08.461Z,21.00
2019-05-03T17:58:59.642Z,21.00
2019-05-03T18:01:47.474Z,21.00
2019-05-03T18:04:24.915Z,21.00
2019-05-03T18:07:14.873Z,21.00
2019-05-03T18:09:44.910Z,21.00
2019-05-03T18:12:15.170Z,20.90
2019-05-03T18:14:45.638Z,21.00
2019-05-03T18:17:15.390Z,21.00
2019-05-03T18:19:47.632Z,21.00
2019-05-03T18:22:16.693Z,20.90
2019-05-03T18:24:46.522Z,20.90
2019-05-03T18:27:16.283Z,20.90
2019-05-03T18:29:46.301Z,20.90
2019-05-03T18:32:16.710Z,20.90
2019-05-03T18:34:47.543Z,20.90
2019-05-03T18:37:17.296Z,20.90
2019-05-03T18:39:47.110Z,20.90
2019-05-03T18:42:24.610Z,20.90
2019-05-03T18:44:58.751Z,20.90
2019-05-03T18:47:28.528Z,20.90
2019-05-03T18:49:58.278Z,20.90
2019-05-03T18:52:28.215Z,20.90
2019-05-03T18:54:57.997Z,20.80
2019-05-03T18:57:27.929Z,20.80
2019-05-03T18:59:57.803Z,20.90
2019-05-03T19:02:27.546Z,20.80
2019-05-03T19:04:58.605Z,20.80
2019-05-03T19:07:54.589Z,20.80
2019-05-03T19:10:32.925Z,20.80
2019-05-03T19:13:27.862Z,20.80
2019-05-03T19:15:58.622Z,20.80
2019-05-03T19:18:30.534Z,20.70
2019-05-03T19:21:00.764Z,20.80
2019-05-03T19:23:30.591Z,20.80
2019-05-03T19:26:00.338Z,20.70
2019-05-03T19:28:30.141Z,20.70
2019-05-03T19:31:02.482Z,20.70
2019-05-03T19:33:32.218Z,20.70
2019-05-03T19:36:01.974Z,20.70
2019-05-03T19:38:31.803Z,20.70
2019-05-03T19:41:01.554Z,20.70
2019-05-03T19:43:31.307Z,20.70
2019-05-03T19:46:02.311Z,20.70
2019-05-03T19:48:32.058Z,20.70
2019-05-03T19:51:05.722Z,20.70
2019-05-03T19:53:55.114Z,20.70
2019-05-03T19:56:25.710Z,20.70
2019-05-03T19:59:00.274Z,20.70
2019-05-03T20:01:55.219Z,20.70
2019-05-03T20:04:34.274Z,20.70
2019-05-03T20:07:14.946Z,20.70
2019-05-03T20:09:44.689Z,20.70
2019-05-03T20:12:15.222Z,20.70
2019-05-03T20:14:45.278Z,20.60
2019-05-03T20:17:15.063Z,20.70
2019-05-03T20:19:45.176Z,20.60
2019-05-03T20:22:15.314Z,20.60
2019-05-03T20:24:45.730Z,20.60
2019-05-03T20:27:15.487Z,20.60
2019-05-03T20:29:46.305Z,20.60
2019-05-03T20:32:16.717Z,20.60
2019-05-03T20:34:47.755Z,20.60
2019-05-03T20:37:17.502Z,20.60
2019-05-03T20:39:47.335Z,20.60
2019-05-03T20:42:36.226Z,20.60
2019-05-03T20:45:14.367Z,20.60
2019-05-03T20:47:55.974Z,20.60
2019-05-03T20:50:27.378Z,20.60
2019-05-03T20:52:57.398Z,20.60
2019-05-03T20:55:27.154Z,20.60
2019-05-03T20:57:56.922Z,20.60
2019-05-03T21:00:26.946Z,20.60
2019-05-03T21:02:57.480Z,20.60
2019-05-03T21:05:31.743Z,20.60
2019-05-03T21:07:59.078Z,20.60
2019-05-03T21:10:29.770Z,20.50
2019-05-03T21:12:59.526Z,20.60
2019-05-03T21:15:35.938Z,20.50
2019-05-03T21:18:16.651Z,20.60
2019-05-03T21:20:55.464Z,20.50
2019-05-03T21:23:26.466Z,20.50
2019-05-03T21:26:13.052Z,20.50
2019-05-03T21:28:38.626Z,20.50
2019-05-03T21:31:09.017Z,20.50
2019-05-03T21:33:40.066Z,20.50
2019-05-03T21:36:09.832Z,20.50
2019-05-03T21:38:41.036Z,20.50
2019-05-03T21:41:11.003Z,20.50
2019-05-03T21:43:42.186Z,20.50
2019-05-03T21:46:17.663Z,20.50
2019-05-03T21:48:52.854Z,20.50
2019-05-03T21:51:24.374Z,20.50
2019-05-03T21:53:54.105Z,20.50
2019-05-03T21:56:25.004Z,20.50
2019-05-03T21:58:55.281Z,20.50
2019-05-03T22:01:26.070Z,20.50
2019-05-03T22:03:55.962Z,20.50
2019-05-03T22:06:25.863Z,20.50
2019-05-03T22:08:58.082Z,20.50
2019-05-03T22:11:27.194Z,20.50
2019-05-03T22:13:58.834Z,20.50
2019-05-03T22:16:42.151Z,20.50
2019-05-03T22:19:16.268Z,20.50
2019-05-03T22:22:14.790Z,20.50
2019-05-03T22:24:47.838Z,20.50
2019-05-03T22:27:19.555Z,20.40
2019-05-03T22:29:49.347Z,20.40
2019-05-03T22:32:19.781Z,20.40
2019-05-03T22:34:51.030Z,20.50
2019-05-03T22:37:20.770Z,20.40
2019-05-03T22:39:50.518Z,20.50
2019-05-03T22:42:21.177Z,20.40
2019-05-03T22:44:51.122Z,20.40
2019-05-03T22:47:21.902Z,20.40
2019-05-03T22:49:51.664Z,20.40
2019-05-03T22:52:21.413Z,20.40
2019-05-03T22:54:51.165Z,20.40
2019-05-03T22:57:20.983Z,20.40
2019-05-03T22:59:50.807Z,20.40
2019-05-03T23:02:21.522Z,20.40
2019-05-03T23:04:51.346Z,20.40
2019-05-03T23:07:21.120Z,20.40
2019-05-03T23:09:50.884Z,20.40
2019-05-03T23:12:20.638Z,20.40
2019-05-03T23:14:50.390Z,20.40
2019-05-03T23:17:20.510Z,20.40
2019-05-03T23:19:56.632Z,20.40
2019-05-03T23:22:29.131Z,20.40
2019-05-03T23:24:58.890Z,20.40
2019-05-03T23:27:28.686Z,20.40
2019-05-03T23:29:58.438Z,20.40
2019-05-03T23:32:29.039Z,20.30
2019-05-03T23:34:59.325Z,20.30
2019-05-03T23:37:30.858Z,20.40
2019-05-03T23:40:00.605Z,20.40
2019-05-03T23:42:30.353Z,20.40
2019-05-03T23:45:02.346Z,20.30
2019-05-03T23:47:40.262Z,20.30
2019-05-03T23:50:13.949Z,20.30
2019-05-03T23:52:45.168Z,20.30
2019-05-03T23:55:27.699Z,20.30
2019-05-03T23:57:57.482Z,20.30
